Millers Tavern, Virginia
Current Conditions -  °F | °C
As of 8:35 AM on Tuesday 21 Oct 2014 (Local Time) from KXSA Reporting Station
Scattered Clouds Scattered Clouds  
Wind Chill: 55°   Ceiling: Unl
Heat Index: 55°   Visibility: 10mi
Dew Point: 47°   Wind: 0mph
Humidity: 74%   Direction: NA
Pressure: 29.89"   Gusts: NA
Location:  37.83°N, 76.95°W
Report Text: KXSA 211235Z AUTO 00000KT 10SM SCT120 13/08 A2989 RMK AO2 T01280083
Loading
Personal Weather Stations






























Interactive Weather Map
Tropical Storm Tracking
New forecast layout! Learn more

10-Day Weather Forecast

Advertisements
Track Severe Weather on mobile